Time;durP1;ratioP1;P1;durP2;ratioP2;P2;SDS_P1;SDS_P2;PMS_P1;PMS_P2;Temp;Humidity;BMP_temperature;BMP_pressure;BME280_temperature;BME280_humidity;BME280_pressure;Samples;Min_cycle;Max_cycle;Signal;HPM_P1;HPM_P2
2022/11/17 00:02:05;;;;;;;9.10;8.20;;;;;;;3.89;73.49;99551.31;108840;1272;22152;-83
2022/11/17 00:04:36;;;;;;;9.40;8.50;;;;;;;3.88;73.35;99548.38;108686;1274;21924;-82
2022/11/17 00:07:06;;;;;;;9.80;7.80;;;;;;;3.87;73.22;99544.78;108831;1272;21928;-83
2022/11/17 00:09:53;;;;;;;10.60;8.50;;;;;;;3.85;73.21;99546.21;109065;1272;22699;-83
2022/11/17 00:15:13;;;;;;;10.00;9.00;;;;;;;3.82;73.20;99543.54;108929;1278;21937;-87
2022/11/17 00:21:28;;;;;;;;;;;;;;;;;;;;;
2022/11/17 00:25:21;;;;;;;11.10;9.40;;;;;;;3.73;73.24;99530.67;109201;1277;21941;-85
2022/11/17 00:28:37;;;;;;;11.20;9.20;;;;;;;3.75;73.31;99541.30;108736;1284;22853;-86
2022/11/17 00:34:36;;;;;;;10.80;9.80;;;;;;;3.75;73.28;99532.69;108044;1288;21947;-85
2022/11/17 00:37:17;;;;;;;;;;;;;;;3.75;73.18;99534.23;108100;1289;22466;-83
2022/11/17 00:39:52;;;;;;;11.10;10.00;;;;;;;3.65;73.34;99531.52;108371;1283;21933;-85
2022/11/17 00:42:38;;;;;;;10.80;9.80;;;;;;;3.65;73.48;99528.61;108628;1280;21960;-84
2022/11/17 00:45:17;;;;;;;12.30;11.10;;;;;;;3.69;73.46;99530.74;108581;1280;21945;-84
2022/11/17 00:48:11;;;;;;;;;;;;;;;;;;;;;
2022/11/17 00:50:51;;;;;;;12.60;11.40;;;;;;;3.72;73.31;99527.75;108641;1278;21907;-84
2022/11/17 00:54:17;;;;;;;11.70;10.60;;;;;;;3.70;73.25;99524.19;108897;1279;22846;-85
2022/11/17 00:57:02;;;;;;;11.30;10.30;;;;;;;3.68;73.31;99526.65;108637;1279;23664;-85
2022/11/17 00:59:37;;;;;;;10.90;9.90;;;;;;;3.66;73.35;99523.25;108764;1278;21949;-85
2022/11/17 01:02:24;;;;;;;13.20;11.90;;;;;;;3.66;73.30;99523.77;108213;1285;21937;-84
2022/11/17 01:05:16;;;;;;;13.00;11.80;;;;;;;3.64;73.26;99520.73;108671;1277;22321;-84
2022/11/17 01:07:52;;;;;;;12.50;11.30;;;;;;;3.63;73.31;99517.64;108662;1279;23908;-84
2022/11/17 01:10:23;;;;;;;15.20;13.80;;;;;;;3.65;73.33;99515.02;108691;1277;22763;-84
2022/11/17 01:13:02;;;;;;;14.30;12.90;;;;;;;3.65;73.29;99513.81;108728;1277;21928;-82
2022/11/17 01:15:34;;;;;;;13.50;12.20;;;;;;;3.64;73.32;99519.01;108522;1277;23823;-83
2022/11/17 01:18:34;;;;;;;13.20;11.90;;;;;;;3.61;73.30;99514.43;108748;1277;21960;-83
2022/11/17 01:21:49;;;;;;;;;;;;;;;3.60;73.39;99519.62;108688;1277;22701;-83
2022/11/17 01:24:38;;;;;;;13.40;12.10;;;;;;;3.52;73.72;99519.45;108459;1279;23148;-83
2022/11/17 01:27:26;;;;;;;15.00;13.60;;;;;;;3.55;73.65;99516.45;108277;1286;21935;-83
2022/11/17 01:29:58;;;;;;;15.70;14.30;;;;;;;3.59;73.66;99512.74;108057;1289;21975;-81
2022/11/17 01:32:39;;;;;;;16.70;14.50;;;;;;;3.59;73.60;99520.30;108134;1283;21985;-82
2022/11/17 01:35:25;;;;;;;15.30;13.80;;;;;;;3.60;73.50;99524.25;108262;1286;21953;-82
2022/11/17 01:38:04;;;;;;;15.60;14.20;;;;;;;3.60;73.47;99526.47;108041;1283;23618;-85
2022/11/17 01:40:57;;;;;;;15.80;14.40;;;;;;;3.61;73.54;99520.80;108264;1286;22820;-82
2022/11/17 01:43:48;;;;;;;17.40;15.00;;;;;;;3.60;73.50;99520.79;108312;1283;21947;-84
2022/11/17 01:46:48;;;;;;;18.20;16.60;;;;;;;3.60;73.53;99514.77;108981;1272;21937;-83
2022/11/17 01:49:27;;;;;;;16.20;14.70;;;;;;;3.61;73.53;99516.83;108993;1272;21889;-83
2022/11/17 01:52:23;;;;;;;16.20;14.80;;;;;;;3.62;73.63;99516.13;108626;1275;23049;-83
2022/11/17 01:55:27;;;;;;;19.00;17.20;;;;;;;3.62;73.57;99515.77;108666;1277;22188;-83
2022/11/17 01:58:52;;;;;;;18.10;16.30;;;;;;;3.63;73.58;99512.64;108738;1277;21949;-83
2022/11/17 02:02:28;;;;;;;18.10;16.50;;;;;;;3.60;73.58;99505.84;108944;1277;22264;-87
2022/11/17 02:05:59;;;;;;;18.30;16.50;;;;;;;3.60;73.66;99509.64;108978;1280;21943;-86
2022/11/17 02:08:36;;;;;;;16.50;15.00;;;;;;;3.61;73.85;99509.95;108904;1286;24440;-88
2022/11/17 02:11:23;;;;;;;18.30;15.90;;;;;;;3.67;73.80;99510.16;108685;1283;21908;-87
2022/11/17 02:14:21;;;;;;;;;;;;;;;;;;;;;
2022/11/17 02:17:15;;;;;;;17.40;15.80;;;;;;;3.69;73.63;99502.18;108745;1280;22883;-86
2022/11/17 02:20:33;;;;;;;18.80;16.90;;;;;;;3.69;73.59;99501.32;108042;1289;22625;-86
2022/11/17 02:23:26;;;;;;;;;;;;;;;;;;;;;
2022/11/17 02:26:37;;;;;;;19.30;17.40;;;;;;;3.73;73.54;99506.23;108863;1283;22020;-81
2022/11/17 02:29:46;;;;;;;17.80;16.40;;;;;;;3.73;73.49;99502.45;108386;1283;23048;-81
2022/11/17 02:32:29;;;;;;;17.80;16.20;;;;;;;3.73;73.49;99502.95;108489;1281;22057;-83
2022/11/17 02:35:16;;;;;;;17.60;16.10;;;;;;;3.76;73.54;99501.17;108035;1289;23714;-83
2022/11/17 02:38:01;;;;;;;18.30;16.60;;;;;;;3.78;73.42;99502.85;108281;1282;23003;-83
2022/11/17 02:41:37;;;;;;;16.20;14.80;;;;;;;3.78;73.37;99503.02;108528;1284;21936;-83
2022/11/17 02:44:40;;;;;;;18.90;17.30;;;;;;;3.79;73.47;99504.38;108433;1283;21968;-82
2022/11/17 02:47:23;;;;;;;17.60;16.10;;;;;;;3.78;73.31;99501.30;108365;1281;21800;-80
2022/11/17 02:50:06;;;;;;;19.40;17.60;;;;;;;3.76;73.33;99498.92;108407;1281;22963;-83
2022/11/17 02:52:48;;;;;;;18.30;16.50;;;;;;;3.79;73.30;99502.33;108447;1280;21955;-81
2022/11/17 02:55:20;;;;;;;18.30;16.90;;;;;;;3.81;73.16;99499.01;108565;1280;23947;-82
2022/11/17 02:57:50;;;;;;;19.30;17.60;;;;;;;3.79;73.11;99496.45;108319;1283;23684;-81
2022/11/17 03:00:20;;;;;;;19.70;18.10;;;;;;;3.78;73.12;99495.27;107589;1289;23030;-82
2022/11/17 03:03:00;;;;;;;17.80;16.20;;;;;;;3.79;73.14;99500.08;107812;1284;21981;-82
2022/11/17 03:06:06;;;;;;;19.90;18.20;;;;;;;3.79;73.17;99501.95;108114;1289;22398;-80
2022/11/17 03:08:59;;;;;;;19.40;17.70;;;;;;;3.78;73.07;99501.80;107546;1293;24931;-81
2022/11/17 03:11:47;;;;;;;20.20;18.30;;;;;;;3.76;73.01;99498.58;107451;1295;21958;-83
2022/11/17 03:15:00;;;;;;;18.80;17.10;;;;;;;3.75;73.09;99497.59;107307;1296;23628;-82
2022/11/17 03:18:11;;;;;;;22.00;19.90;;;;;;;3.74;73.11;99498.29;107808;1288;22735;-82
2022/11/17 03:21:40;;;;;;;22.70;20.70;;;;;;;3.73;73.10;99495.56;108296;1277;21956;-83
2022/11/17 03:24:56;;;;;;;18.60;17.20;;;;;;;3.73;73.09;99496.60;108348;1283;23182;-82
2022/11/17 03:27:54;;;;;;;21.10;18.90;;;;;;;3.71;73.07;99496.29;108510;1277;22412;-82
2022/11/17 03:31:11;;;;;;;20.00;18.20;;;;;;;3.71;73.13;99495.60;108848;1275;21927;-83
2022/11/17 03:33:52;;;;;;;19.30;17.50;;;;;;;3.70;73.11;99491.48;108595;1283;21925;-83
2022/11/17 03:36:34;;;;;;;20.10;18.30;;;;;;;3.72;73.04;99492.13;108586;1278;21793;-83
2022/11/17 03:39:18;;;;;;;20.50;18.60;;;;;;;3.75;72.93;99489.31;108641;1282;21968;-83
2022/11/17 03:41:52;;;;;;;19.60;17.60;;;;;;;3.74;72.84;99485.73;108494;1279;21954;-82
2022/11/17 03:44:27;;;;;;;18.40;16.80;;;;;;;3.76;72.95;99486.88;108661;1278;21966;-83
2022/11/17 03:46:58;;;;;;;18.40;16.80;;;;;;;3.76;72.86;99483.63;108609;1278;23058;-83
2022/11/17 03:49:58;;;;;;;18.60;17.00;;;;;;;3.76;72.84;99481.37;108669;1280;21989;-85
2022/11/17 03:52:33;;;;;;;18.70;17.00;;;;;;;3.73;72.80;99480.92;109029;1280;21936;-84
2022/11/17 03:55:13;;;;;;;17.60;16.20;;;;;;;3.72;72.81;99481.30;108740;1280;22556;-83
2022/11/17 03:58:23;;;;;;;17.40;15.90;;;;;;;3.71;72.82;99479.77;108708;1280;22014;-84
2022/11/17 04:01:10;;;;;;;;;;;;;;;;;;;;;
2022/11/17 04:03:43;;;;;;;16.80;15.40;;;;;;;3.74;72.84;99476.63;108709;1280;22799;-84
2022/11/17 04:06:44;;;;;;;16.30;14.90;;;;;;;3.72;72.71;99479.23;108609;1280;23766;-83
2022/11/17 04:09:25;;;;;;;16.30;14.90;;;;;;;3.71;72.71;99478.23;108296;1284;22004;-83
2022/11/17 04:17:37;;;;;;;15.90;14.30;;;;;;;3.68;72.69;99487.59;108414;1277;21949;-84
2022/11/17 04:20:08;;;;;;;15.10;13.70;;;;;;;3.68;72.72;99485.02;108453;1280;23591;-83
2022/11/17 04:22:38;;;;;;;15.20;13.80;;;;;;;3.69;72.66;99484.63;108524;1280;21945;-83
2022/11/17 04:28:35;;;;;;;14.80;13.40;;;;;;;3.69;72.69;99483.59;108394;1280;21948;-83
2022/11/17 04:31:06;;;;;;;14.80;13.60;;;;;;;3.70;72.63;99488.40;108883;1272;21937;-83
2022/11/17 04:33:42;;;;;;;14.70;13.40;;;;;;;3.72;72.60;99491.96;108854;1271;21931;-82
2022/11/17 04:36:36;;;;;;;13.50;12.30;;;;;;;3.73;72.55;99496.58;108768;1272;21937;-84
2022/11/17 04:39:38;;;;;;;13.10;12.00;;;;;;;3.72;72.51;99496.61;109054;1272;23445;-86
2022/11/17 04:42:23;;;;;;;12.60;11.40;;;;;;;3.70;72.44;99493.39;109029;1274;21954;-87
2022/11/17 04:45:05;;;;;;;13.00;11.50;;;;;;;3.70;72.41;99487.55;108947;1272;21890;-86
2022/11/17 04:47:42;;;;;;;11.40;10.30;;;;;;;3.68;72.30;99487.92;109020;1272;21934;-87
2022/11/17 04:50:24;;;;;;;11.10;10.00;;;;;;;3.65;72.27;99490.58;108971;1272;22940;-86
2022/11/17 04:53:18;;;;;;;11.90;10.90;;;;;;;3.64;72.34;99496.09;109133;1272;23096;-84
2022/11/17 04:56:12;;;;;;;;;;;;;;;3.63;72.32;99497.86;108949;1275;23748;-84
2022/11/17 04:58:54;;;;;;;11.30;10.30;;;;;;;3.57;72.42;99496.79;108939;1272;23042;-84
2022/11/17 05:01:35;;;;;;;12.00;10.80;;;;;;;3.57;72.45;99499.04;108966;1269;23039;-85
2022/11/17 05:07:38;;;;;;;11.60;10.40;;;;;;;3.57;72.31;99497.64;108647;1277;23094;-83
2022/11/17 05:10:09;;;;;;;10.90;9.80;;;;;;;3.59;72.27;99498.13;108589;1278;22070;-81
2022/11/17 05:18:21;;;;;;;10.50;9.40;;;;;;;3.63;72.11;99498.38;108566;1276;21931;-80
2022/11/17 05:21:00;;;;;;;;;;;;;;;3.62;71.93;99505.27;108483;1280;23090;-79
2022/11/17 05:23:54;;;;;;;10.80;9.80;;;;;;;3.56;72.21;99504.56;108608;1278;23548;-80
2022/11/17 05:26:32;;;;;;;10.70;9.70;;;;;;;3.56;72.11;99507.81;108685;1278;21927;-79
2022/11/17 05:29:19;;;;;;;10.30;9.20;;;;;;;3.60;72.12;99510.33;108353;1281;21966;-79
2022/11/17 05:31:55;;;;;;;10.70;9.80;;;;;;;3.60;71.98;99512.36;108503;1276;21932;-79
2022/11/17 05:34:57;;;;;;;9.30;8.40;;;;;;;3.60;71.93;99508.94;108514;1278;22276;-80
2022/11/17 05:37:29;;;;;;;9.80;8.90;;;;;;;3.63;71.95;99510.77;108127;1278;23746;-82
2022/11/17 05:40:11;;;;;;;11.00;10.00;;;;;;;3.65;71.80;99506.76;108577;1277;21947;-81
2022/11/17 05:42:42;;;;;;;10.30;9.30;;;;;;;3.67;71.78;99506.88;108444;1277;23045;-79
2022/11/17 05:45:17;;;;;;;11.30;9.90;;;;;;;3.67;71.65;99500.17;108487;1283;22419;-82
2022/11/17 05:48:14;;;;;;;9.90;9.10;;;;;;;3.66;71.55;99503.11;107921;1286;22172;-83
2022/11/17 05:50:55;;;;;;;11.60;10.60;;;;;;;3.66;71.53;99507.94;107974;1286;21960;-79
2022/11/17 05:53:24;;;;;;;15.70;14.20;;;;;;;3.68;71.47;99508.23;107895;1289;23200;-78
2022/11/17 05:56:48;;;;;;;9.60;8.40;;;;;;;3.67;71.36;99512.20;107925;1286;23006;-84
2022/11/17 05:59:36;;;;;;;;;;;;;;;;;;;;;
2022/11/17 06:02:54;;;;;;;;;;;;;;;;;;;;;
2022/11/17 06:05:39;;;;;;;8.90;8.10;;;;;;;3.56;71.39;99515.58;108347;1277;21949;-79
2022/11/17 06:08:36;;;;;;;9.10;8.00;;;;;;;3.52;71.12;99527.35;108490;1277;22016;-82
2022/11/17 06:11:07;;;;;;;9.20;8.40;;;;;;;3.51;70.92;99520.32;108751;1275;21954;-79
2022/11/17 06:13:42;;;;;;;9.20;8.40;;;;;;;3.46;70.95;99521.80;108566;1272;21924;-79
2022/11/17 06:16:15;;;;;;;9.40;8.50;;;;;;;3.44;70.85;99525.80;108733;1274;21997;-79
2022/11/17 06:18:50;;;;;;;11.00;9.10;;;;;;;3.41;70.70;99528.63;108918;1272;21929;-79
2022/11/17 06:21:20;;;;;;;8.80;8.00;;;;;;;3.35;70.47;99532.35;108730;1276;21945;-79
2022/11/17 06:24:27;;;;;;;8.40;7.70;;;;;;;3.30;70.69;99531.27;108540;1276;21925;-78
2022/11/17 06:27:10;;;;;;;8.60;7.80;;;;;;;3.29;70.68;99529.38;108328;1280;21939;-79
2022/11/17 06:29:43;;;;;;;9.00;8.10;;;;;;;3.30;70.63;99531.08;108271;1281;23061;-79
2022/11/17 06:32:42;;;;;;;10.40;8.10;;;;;;;3.29;70.56;99530.59;108196;1280;22022;-79
2022/11/17 06:35:32;;;;;;;8.00;7.30;;;;;;;3.29;70.48;99532.98;108379;1281;21957;-79
2022/11/17 06:38:07;;;;;;;10.50;7.90;;;;;;;3.27;70.40;99536.30;108426;1280;21956;-79
2022/11/17 06:41:33;;;;;;;8.80;8.00;;;;;;;3.24;70.39;99535.85;108504;1272;21935;-80
2022/11/17 06:44:25;;;;;;;7.90;7.30;;;;;;;3.25;70.41;99542.20;108373;1272;21937;-79
2022/11/17 06:47:27;;;;;;;8.00;7.30;;;;;;;3.23;70.19;99544.30;108917;1272;21962;-79
2022/11/17 06:50:04;;;;;;;7.60;7.00;;;;;;;3.23;70.27;99543.45;109049;1270;22382;-79
2022/11/17 06:52:33;;;;;;;9.20;8.30;;;;;;;3.23;70.13;99549.98;108710;1272;22215;-79
2022/11/17 06:55:05;;;;;;;8.10;7.30;;;;;;;3.20;70.00;99550.55;108731;1272;22705;-78
2022/11/17 06:57:33;;;;;;;8.10;7.40;;;;;;;3.17;69.88;99545.30;108632;1265;23147;-78
2022/11/17 07:00:01;;;;;;;8.40;7.50;;;;;;;3.13;69.87;99542.63;108769;1272;23045;-78
2022/11/17 07:02:33;;;;;;;9.60;7.60;;;;;;;3.12;69.87;99542.98;108638;1277;21932;-78
2022/11/17 07:05:15;;;;;;;8.90;7.50;;;;;;;3.10;69.87;99545.43;108440;1278;21933;-78
2022/11/17 07:07:50;;;;;;;8.30;7.20;;;;;;;3.06;69.79;99547.05;108549;1278;23724;-78
2022/11/17 07:10:19;;;;;;;;;;;;;;;3.05;69.78;99545.34;108402;1271;21909;-80
2022/11/17 07:13:00;;;;;;;8.00;7.10;;;;;;;2.97;69.94;99551.34;108094;1283;23017;-77
2022/11/17 07:15:45;;;;;;;8.90;7.50;;;;;;;2.97;70.11;99549.98;108116;1283;23390;-79
2022/11/17 07:18:23;;;;;;;10.60;8.00;;;;;;;2.98;69.97;99549.45;108130;1282;21937;-78
2022/11/17 07:21:04;;;;;;;10.00;7.90;;;;;;;2.99;69.93;99549.76;107566;1283;22360;-79
2022/11/17 07:23:43;;;;;;;9.30;8.30;;;;;;;2.99;69.85;99551.84;107846;1289;21979;-78
2022/11/17 07:27:08;;;;;;;9.30;8.30;;;;;;;2.96;69.78;99550.34;107690;1289;23038;-77
2022/11/17 07:30:15;;;;;;;9.30;8.30;;;;;;;2.93;69.81;99547.31;107190;1294;22343;-79
2022/11/17 07:33:04;;;;;;;11.10;8.60;;;;;;;2.94;69.79;99546.78;106959;1294;21958;-79
2022/11/17 07:35:42;;;;;;;12.80;11.60;;;;;;;2.95;69.73;99546.75;106989;1294;22023;-77
2022/11/17 07:38:18;;;;;;;15.30;13.60;;;;;;;2.97;69.79;99548.95;106884;1292;22105;-79
2022/11/17 07:41:04;;;;;;;;;;;;;;;;;;;;;
2022/11/17 07:44:24;;;;;;;10.20;9.20;;;;;;;3.02;69.84;99553.33;108801;1283;22817;-79
2022/11/17 07:47:19;;;;;;;13.10;9.10;;;;;;;3.04;69.86;99554.31;108069;1280;23613;-79
2022/11/17 07:50:17;;;;;;;13.40;9.40;;;;;;;3.06;69.89;99553.77;108301;1275;23879;-78
2022/11/17 07:52:55;;;;;;;;;;;;;;;3.10;69.86;99549.03;108940;1272;22376;-80
2022/11/17 07:55:24;;;;;;;10.20;9.20;;;;;;;3.08;69.90;99551.31;109311;1270;21924;-79
2022/11/17 07:58:01;;;;;;;11.40;9.90;;;;;;;3.08;69.76;99551.47;109017;1272;21967;-84
2022/11/17 08:00:32;;;;;;;12.90;9.60;;;;;;;3.06;69.83;99555.81;109014;1272;21916;-80
2022/11/17 08:03:03;;;;;;;12.20;10.60;;;;;;;3.07;69.72;99557.86;108743;1272;22913;-82
2022/11/17 08:05:34;;;;;;;15.20;13.50;;;;;;;3.05;69.69;99556.55;108992;1272;22713;-85
2022/11/17 08:08:18;;;;;;;15.90;12.80;;;;;;;3.05;69.76;99552.58;108831;1277;21960;-78
2022/11/17 08:10:48;;;;;;;13.80;10.90;;;;;;;3.08;69.82;99553.20;108819;1278;21960;-79
2022/11/17 08:13:21;;;;;;;16.50;10.30;;;;;;;3.14;69.79;99556.36;108169;1284;21943;-81
2022/11/17 08:15:56;;;;;;;15.70;12.60;;;;;;;3.17;69.58;99561.96;108074;1286;23626;-82
2022/11/17 08:18:25;;;;;;;12.10;10.60;;;;;;;3.16;69.47;99554.25;108189;1285;22486;-82
2022/11/17 08:21:06;;;;;;;11.10;9.20;;;;;;;3.16;69.52;99552.71;108230;1286;21956;-80
2022/11/17 08:23:36;;;;;;;15.90;12.30;;;;;;;3.14;69.44;99550.00;108027;1286;23715;-80
2022/11/17 08:26:06;;;;;;;11.80;9.70;;;;;;;3.15;69.46;99548.24;107887;1283;23642;-82
2022/11/17 08:28:35;;;;;;;13.20;11.10;;;;;;;3.15;69.36;99551.52;108520;1283;22620;-81
2022/11/17 08:31:10;;;;;;;12.00;10.80;;;;;;;3.09;69.25;99554.55;108414;1277;23706;-80
2022/11/17 08:33:46;;;;;;;13.20;11.50;;;;;;;3.06;69.26;99544.98;108653;1278;24200;-83
2022/11/17 08:36:40;;;;;;;13.00;10.40;;;;;;;3.06;69.43;99545.51;109076;1277;22695;-81
2022/11/17 08:39:14;;;;;;;12.10;10.70;;;;;;;3.05;69.31;99542.26;108275;1283;21981;-85
2022/11/17 08:41:58;;;;;;;11.80;9.40;;;;;;;3.03;69.26;99547.45;108377;1283;22016;-84
2022/11/17 08:44:48;;;;;;;;;;;;;;;;;;;;;
2022/11/17 08:47:18;;;;;;;12.10;10.80;;;;;;;2.94;69.10;99549.88;108470;1280;23607;-83
2022/11/17 08:49:46;;;;;;;10.40;9.30;;;;;;;2.90;69.25;99541.35;108451;1277;21954;-83
2022/11/17 08:52:14;;;;;;;12.50;10.90;;;;;;;2.95;69.31;99548.98;108551;1276;21956;-84
2022/11/17 08:54:47;;;;;;;13.30;11.10;;;;;;;2.98;69.19;99548.59;108665;1277;23579;-84
2022/11/17 08:57:21;;;;;;;10.90;9.80;;;;;;;2.98;69.12;99549.27;108953;1272;21946;-84
2022/11/17 08:59:49;;;;;;;14.80;10.60;;;;;;;3.00;69.15;99545.96;109070;1272;21927;-83
2022/11/17 09:02:17;;;;;;;11.60;10.00;;;;;;;3.06;69.23;99552.04;108897;1272;21932;-85
2022/11/17 09:04:49;;;;;;;10.50;9.50;;;;;;;3.13;69.19;99556.02;108967;1272;21935;-88
2022/11/17 09:07:17;;;;;;;12.00;9.00;;;;;;;3.19;69.05;99561.06;109322;1272;21953;-82
2022/11/17 09:09:53;;;;;;;11.00;9.70;;;;;;;3.22;68.89;99563.41;109177;1275;22696;-87
2022/11/17 09:12:27;;;;;;;10.70;9.50;;;;;;;3.23;68.63;99569.40;108937;1277;21946;-88
2022/11/17 09:14:55;;;;;;;10.20;9.10;;;;;;;3.23;68.41;99566.34;109189;1273;21929;-80
2022/11/17 09:17:27;;;;;;;9.90;9.00;;;;;;;3.22;68.37;99562.38;108716;1277;21940;-83
2022/11/17 09:19:58;;;;;;;11.60;10.00;;;;;;;3.22;68.45;99566.51;108826;1276;22050;-84
2022/11/17 09:22:26;;;;;;;11.40;10.10;;;;;;;3.23;68.43;99563.05;108674;1278;21926;-87
2022/11/17 09:24:59;;;;;;;12.60;11.30;;;;;;;3.27;68.49;99562.97;109133;1277;22349;-87
2022/11/17 09:27:32;;;;;;;12.30;11.00;;;;;;;3.30;68.28;99564.12;109635;1278;21893;-89
2022/11/17 09:30:02;;;;;;;13.90;11.50;;;;;;;3.34;68.12;99565.39;108935;1276;23145;-85
2022/11/17 09:32:33;;;;;;;11.10;9.80;;;;;;;3.32;67.66;99565.27;108880;1278;21933;-83
2022/11/17 09:35:05;;;;;;;15.60;12.10;;;;;;;3.29;67.61;99567.39;108597;1280;21935;-86
2022/11/17 09:37:33;;;;;;;17.50;15.90;;;;;;;3.30;67.65;99566.70;108667;1279;21930;-84
2022/11/17 09:40:00;;;;;;;13.80;12.40;;;;;;;3.30;67.57;99571.68;108732;1278;21951;-83
2022/11/17 09:42:29;;;;;;;12.10;10.90;;;;;;;3.31;67.44;99569.42;108642;1280;24281;-83
2022/11/17 09:45:14;;;;;;;13.20;10.30;;;;;;;3.35;67.62;99567.27;108699;1277;23676;-85
2022/11/17 09:48:04;;;;;;;10.90;9.80;;;;;;;3.36;67.22;99559.52;108788;1272;22911;-85
2022/11/17 09:50:57;;;;;;;8.60;7.80;;;;;;;3.29;66.70;99559.31;109264;1272;21932;-83
2022/11/17 09:53:38;;;;;;;10.30;9.20;;;;;;;3.24;66.42;99561.30;109189;1272;21947;-83
2022/11/17 09:56:10;;;;;;;14.00;9.30;;;;;;;3.23;66.60;99555.13;108838;1272;21926;-83
2022/11/17 09:59:03;;;;;;;19.60;9.60;;;;;;;3.25;66.54;99556.81;108892;1272;21922;-82
2022/11/17 10:01:31;;;;;;;14.90;10.00;;;;;;;3.26;66.48;99560.59;109024;1272;21993;-84
2022/11/17 10:04:00;;;;;;;12.30;10.50;;;;;;;3.27;66.42;99555.23;108938;1272;21932;-86
2022/11/17 10:06:30;;;;;;;12.90;10.20;;;;;;;3.30;66.34;99558.08;108635;1278;22438;-85
2022/11/17 10:09:34;;;;;;;19.80;13.00;;;;;;;3.35;66.35;99554.55;108737;1278;23119;-84
2022/11/17 10:12:31;;;;;;;13.40;10.50;;;;;;;3.39;66.08;99554.13;108658;1277;21905;-82
2022/11/17 10:15:21;;;;;;;9.40;8.40;;;;;;;3.38;65.76;99557.59;109078;1278;21948;-87
2022/11/17 10:17:50;;;;;;;10.40;7.20;;;;;;;3.33;65.50;99553.91;108787;1277;23667;-84
2022/11/17 10:20:19;;;;;;;11.40;8.40;;;;;;;3.32;65.46;99549.62;108667;1277;23081;-87
2022/11/17 10:22:49;;;;;;;13.20;10.10;;;;;;;3.32;65.35;99548.59;108706;1277;21924;-84
2022/11/17 10:25:36;;;;;;;16.10;12.70;;;;;;;3.33;65.33;99544.62;109381;1272;22313;-84
2022/11/17 10:28:29;;;;;;;16.80;10.60;;;;;;;3.39;65.47;99543.10;109391;1272;22146;-86
2022/11/17 10:31:17;;;;;;;9.80;7.50;;;;;;;3.47;65.48;99539.66;109057;1272;21928;-85
2022/11/17 10:33:52;;;;;;;12.10;6.60;;;;;;;3.52;65.17;99542.83;108301;1272;1071396;-83
2022/11/17 10:36:28;;;;;;;8.30;6.80;;;;;;;3.52;65.02;99546.09;109427;1267;23039;-86
2022/11/17 10:38:59;;;;;;;10.40;9.20;;;;;;;3.50;64.93;99546.83;109458;1273;22231;-87
2022/11/17 10:41:44;;;;;;;10.30;9.20;;;;;;;3.47;64.66;99549.66;109609;1262;22899;-83
2022/11/17 10:44:40;;;;;;;9.80;8.90;;;;;;;3.45;64.85;99550.21;109142;1251;23048;31
2022/11/17 10:47:38;;;;;;;10.40;9.30;;;;;;;3.41;64.72;99550.11;109276;1277;21987;-84
2022/11/17 10:50:26;;;;;;;13.00;8.50;;;;;;;3.36;64.76;99551.59;109161;1277;22663;-86
2022/11/17 10:53:37;;;;;;;10.20;9.20;;;;;;;3.33;64.74;99551.83;109131;1277;21976;-88
2022/11/17 10:56:20;;;;;;;10.20;9.20;;;;;;;3.28;64.86;99550.56;108405;1284;22659;-84
2022/11/17 10:59:08;;;;;;;13.40;10.50;;;;;;;3.28;64.90;99556.06;108573;1286;22006;-83
2022/11/17 11:01:40;;;;;;;8.70;7.80;;;;;;;3.29;64.91;99557.41;108479;1281;22003;-83
2022/11/17 11:04:41;;;;;;;9.00;7.70;;;;;;;3.29;64.88;99562.24;108244;1286;21942;-84
2022/11/17 11:07:23;;;;;;;9.60;8.70;;;;;;;3.26;64.85;99561.77;107960;1292;21968;-83
2022/11/17 11:10:06;;;;;;;10.50;9.20;;;;;;;3.26;64.92;99558.34;107786;1281;22231;-79
2022/11/17 11:13:05;;;;;;;9.00;8.10;;;;;;;3.26;64.97;99557.83;107673;1288;22098;-78
2022/11/17 11:15:53;;;;;;;22.20;13.70;;;;;;;3.22;64.89;99558.42;107538;1292;21932;-78
2022/11/17 11:18:21;;;;;;;20.60;14.60;;;;;;;3.23;64.98;99561.50;107401;1289;23701;-79
2022/11/17 11:20:51;;;;;;;11.80;10.60;;;;;;;3.23;64.82;99564.59;107203;1291;22201;-79
2022/11/17 11:23:49;;;;;;;12.40;9.30;;;;;;;3.20;64.72;99563.27;107532;1286;21997;-79
2022/11/17 11:27:01;;;;;;;10.50;9.20;;;;;;;3.17;64.76;99557.84;107697;1291;23707;-80
2022/11/17 11:29:56;;;;;;;12.10;9.50;;;;;;;3.17;64.87;99556.47;107727;1282;21950;-79
2022/11/17 11:33:03;;;;;;;9.10;8.20;;;;;;;3.12;64.63;99555.35;107826;1286;21953;-81
2022/11/17 11:36:35;;;;;;;9.00;8.10;;;;;;;3.10;64.76;99554.87;107761;1286;22458;-78
2022/11/17 11:39:31;;;;;;;11.60;9.60;;;;;;;3.07;64.71;99549.45;107706;1289;21962;-78
2022/11/17 11:42:36;;;;;;;13.70;10.50;;;;;;;3.06;64.70;99551.17;107709;1289;23769;-79
2022/11/17 11:45:47;;;;;;;10.70;8.70;;;;;;;3.03;64.65;99552.43;108256;1283;21937;-79
2022/11/17 11:48:35;;;;;;;10.00;8.30;;;;;;;3.02;64.65;99554.00;108124;1283;24455;-79
2022/11/17 11:51:30;;;;;;;8.30;7.50;;;;;;;3.01;64.45;99557.81;108168;1283;21939;-79
2022/11/17 11:54:13;;;;;;;15.50;7.10;;;;;;;2.98;64.45;99551.69;107922;1289;22008;-79
2022/11/17 11:56:44;;;;;;;11.30;8.90;;;;;;;2.97;64.40;99552.55;107549;1289;21981;-79
2022/11/17 11:59:33;;;;;;;10.80;9.50;;;;;;;2.99;64.30;99555.44;107823;1288;22117;-82
2022/11/17 12:02:43;;;;;;;20.00;16.40;;;;;;;3.00;64.31;99553.36;107805;1289;21946;-79
2022/11/17 12:05:44;;;;;;;13.80;11.50;;;;;;;2.96;64.17;99541.58;107573;1295;21960;-79
2022/11/17 12:08:44;;;;;;;12.50;7.40;;;;;;;2.90;64.08;99532.25;107498;1294;23070;-79
2022/11/17 12:14:05;;;;;;;12.30;8.50;;;;;;;2.88;63.82;99542.42;107212;1294;23039;-80
2022/11/17 12:16:35;;;;;;;14.50;9.00;;;;;;;2.89;63.59;99545.34;107143;1291;23225;-81
2022/11/17 12:19:59;;;;;;;19.70;11.40;;;;;;;2.89;63.67;99547.90;107814;1294;21952;-80
2022/11/17 12:22:32;;;;;;;12.10;8.00;;;;;;;2.95;63.95;99544.88;107344;1287;23079;-81
2022/11/17 12:25:27;;;;;;;14.50;13.10;;;;;;;3.02;63.70;99542.66;107704;1286;22614;-80
2022/11/17 12:27:56;;;;;;;10.30;9.20;;;;;;;3.05;63.69;99545.00;107485;1292;23594;-78
2022/11/17 12:30:30;;;;;;;12.80;10.00;;;;;;;3.06;63.53;99548.59;106648;1293;23813;-79
2022/11/17 12:33:00;;;;;;;10.30;8.50;;;;;;;3.06;63.41;99544.81;107040;1297;21977;-78
2022/11/17 12:35:31;;;;;;;23.60;12.10;;;;;;;3.00;63.03;99542.70;106853;1293;21960;-79
2022/11/17 12:38:15;;;;;;;19.20;13.10;;;;;;;2.92;63.02;99533.05;106700;1297;24309;-78
2022/11/17 12:40:51;;;;;;;13.00;10.40;;;;;;;2.90;63.19;99537.05;106328;1295;22010;-78
2022/11/17 12:43:23;;;;;;;9.50;8.40;;;;;;;2.87;63.18;99537.80;106968;1297;21957;-78
2022/11/17 12:45:57;;;;;;;16.30;8.40;;;;;;;2.88;63.26;99539.86;107081;1297;23694;-77
2022/11/17 12:48:33;;;;;;;18.60;10.10;;;;;;;2.89;63.39;99542.40;107087;1283;21944;-78
2022/11/17 12:51:53;;;;;;;14.40;12.60;;;;;;;2.88;63.37;99543.79;107741;1283;21935;-76
2022/11/17 12:54:51;;;;;;;9.00;7.90;;;;;;;2.87;63.47;99546.73;108080;1285;21982;-77
2022/11/17 12:57:27;;;;;;;11.60;9.60;;;;;;;2.85;63.42;99540.08;107814;1286;21939;-78
2022/11/17 13:00:13;;;;;;;13.80;10.90;;;;;;;2.81;63.32;99537.41;108002;1283;21934;-77
2022/11/17 13:02:57;;;;;;;12.80;9.10;;;;;;;2.78;63.31;99544.33;108454;1280;22001;-77
2022/11/17 13:05:29;;;;;;;9.60;8.10;;;;;;;2.72;63.18;99546.51;108134;1286;21956;-78
2022/11/17 13:08:15;;;;;;;12.70;9.10;;;;;;;2.68;63.29;99550.53;107853;1286;24303;-79
2022/11/17 13:10:43;;;;;;;12.80;10.00;;;;;;;2.66;63.36;99548.84;108191;1278;21959;-78
2022/11/17 13:13:23;;;;;;;12.60;10.90;;;;;;;2.68;63.50;99547.61;108279;1283;21953;-79
2022/11/17 13:15:59;;;;;;;13.00;10.30;;;;;;;2.72;63.60;99548.90;108066;1277;21945;-76
2022/11/17 13:18:40;;;;;;;14.10;12.10;;;;;;;2.73;63.48;99549.23;107955;1283;21953;-78
2022/11/17 13:21:23;;;;;;;14.10;12.10;;;;;;;2.73;63.63;99550.27;107929;1283;23058;-78
2022/11/17 13:23:52;;;;;;;17.60;13.00;;;;;;;2.75;63.70;99544.04;108660;1277;23079;-77
2022/11/17 13:26:24;;;;;;;11.10;9.90;;;;;;;2.76;63.51;99544.36;108416;1277;22405;-78
2022/11/17 13:29:12;;;;;;;13.70;10.50;;;;;;;2.74;63.45;99544.59;107988;1283;24068;-78
2022/11/17 13:31:40;;;;;;;13.30;11.80;;;;;;;2.69;63.57;99545.35;108187;1281;21969;-78